LTBA/IST METAR and TAF weather

Enter ICAO airport designator
Station Type Date Time Source
LTBA METAR 2020/07/05 15:20 UTC NOAA

LTBA 051520Z 02019KT CAVOK 29/20 Q1008 NOSIG


Station Type Date Time Source
LTBA Decoded METAR 2020/07/05 15:20 UTC NOAA

Istanbul / Ataturk, Turkey (LTBA) 40-58N 028-49E 37M
Jul 05, 2020 - 11:20 AM EDT / 2020.07.05 1520 UTC
Wind: from the NNE (020 degrees) at 22 MPH (19 KT):0
Visibility: greater than 7 mile(s):0
Temperature: 84 F (29 C)
Dew Point: 68 F (20 C)
Relative Humidity: 58%
Pressure (altimeter): 29.77 in. Hg (1008 hPa)
ob: LTBA 051520Z 02019KT CAVOK 29/20 Q1008 NOSIG
cycle: 15

Station Type Date Time Source
LTBA TAF 2020/07/05 12:03 UTC NOAA

TAF LTBA 051040Z 0512/0618 04012KT CAVOK
TEMPO 0514/0518 04015G25KT
BECMG 0523/0602 SCT014
BECMG 0605/0608 CAVOK
TEMPO 0612/0616 04015G25KT

Example: see airport list